DELKN EDBH-EDXH
Flight info
| Callsign | DELKN |
|---|---|
| Flight time | N/A |
| Altitude | 3500 |
| Route | VFR |
| Aircraft | C172/L-V/N |
Departure
| Time | 2026-04-24 16:23 |
|---|---|
| Airport | Stralsund-Barth Airport (EDBH) |
Arrival
| Time | N/A |
|---|---|
| Airport | Helgoland-Düne Airport (EDXH) |
| Time | Latitude | Longitude | Altitude | Speed | Heading |
|---|---|---|---|---|---|
| 2026-04-24 16:20 | 54.33669 | 12.71510 | 18 ft | 0 kts | 272° |
| 2026-04-24 16:20 | 54.33688 | 12.71418 | 17 ft | 9 kts | 345° |
| 2026-04-24 16:20 | 54.33754 | 12.71418 | 17 ft | 9 kts | 1° |
| 2026-04-24 16:21 | 54.33814 | 12.71565 | 18 ft | 9 kts | 94° |
| 2026-04-24 16:21 | 54.33812 | 12.71679 | 19 ft | 9 kts | 92° |
| 2026-04-24 16:21 | 54.33810 | 12.71787 | 20 ft | 9 kts | 93° |
| 2026-04-24 16:22 | 54.33815 | 12.71839 | 21 ft | 3 kts | 296° |
| 2026-04-24 16:22 | 54.33814 | 12.71552 | 18 ft | 47 kts | 271° |
| 2026-04-24 16:22 | 54.33807 | 12.70823 | 106 ft | 67 kts | 273° |
| 2026-04-24 16:23 | 54.33841 | 12.70013 | 277 ft | 71 kts | 283° |
| 2026-04-24 16:23 | 54.33935 | 12.69185 | 485 ft | 70 kts | 282° |
| 2026-04-24 16:23 | 54.33963 | 12.68337 | 632 ft | 73 kts | 276° |
| 2026-04-24 16:24 | 54.33986 | 12.66588 | 920 ft | 72 kts | 277° |
| 2026-04-24 16:24 | 54.33998 | 12.65715 | 1050 ft | 74 kts | 277° |
| 2026-04-24 16:24 | 54.33993 | 12.64849 | 1202 ft | 73 kts | 274° |
| 2026-04-24 16:24 | 54.33851 | 12.63984 | 1307 ft | 81 kts | 251° |
| 2026-04-24 16:25 | 54.33519 | 12.63188 | 1420 ft | 84 kts | 244° |
| 2026-04-24 16:25 | 54.33170 | 12.62354 | 1513 ft | 89 kts | 245° |
| 2026-04-24 16:25 | 54.32797 | 12.61485 | 1622 ft | 91 kts | 245° |
| 2026-04-24 16:26 | 54.32034 | 12.59669 | 1703 ft | 93 kts | 243° |
| 2026-04-24 16:26 | 54.31634 | 12.58783 | 1708 ft | 94 kts | 244° |
| 2026-04-24 16:26 | 54.30844 | 12.56994 | 1738 ft | 94 kts | 244° |
| 2026-04-24 16:27 | 54.30445 | 12.56103 | 1754 ft | 95 kts | 238° |
| 2026-04-24 16:27 | 54.29988 | 12.55293 | 1788 ft | 96 kts | 232° |
| 2026-04-24 16:27 | 54.29492 | 12.54520 | 1803 ft | 97 kts | 231° |
| 2026-04-24 16:27 | 54.28972 | 12.53752 | 1830 ft | 97 kts | 231° |
| 2026-04-24 16:28 | 54.28475 | 12.52980 | 1844 ft | 98 kts | 233° |
| 2026-04-24 16:28 | 54.27961 | 12.52221 | 1873 ft | 98 kts | 230° |
| 2026-04-24 16:28 | 54.26837 | 12.50858 | 1924 ft | 100 kts | 220° |
| 2026-04-24 16:29 | 54.26186 | 12.50327 | 1932 ft | 105 kts | 210° |
| 2026-04-24 16:29 | 54.25513 | 12.49893 | 1963 ft | 104 kts | 211° |
| 2026-04-24 16:29 | 54.24209 | 12.48872 | 2000 ft | 102 kts | 219° |
| 2026-04-24 16:30 | 54.23030 | 12.47584 | 2045 ft | 100 kts | 225° |
| 2026-04-24 16:30 | 54.22479 | 12.46878 | 2062 ft | 98 kts | 230° |
| 2026-04-24 16:30 | 54.21967 | 12.46105 | 2082 ft | 97 kts | 233° |
| 2026-04-24 16:31 | 54.21493 | 12.45297 | 2092 ft | 97 kts | 237° |
| 2026-04-24 16:31 | 54.21046 | 12.44463 | 2120 ft | 95 kts | 239° |
| 2026-04-24 16:31 | 54.20602 | 12.43607 | 2139 ft | 95 kts | 239° |
| 2026-04-24 16:31 | 54.20155 | 12.42775 | 2159 ft | 96 kts | 237° |
| 2026-04-24 16:32 | 54.19845 | 12.42232 | 2170 ft | 96 kts | 235° |
| 2026-04-24 16:32 | 54.19191 | 12.41162 | 2195 ft | 97 kts | 233° |
| 2026-04-24 16:32 | 54.18681 | 12.40398 | 2211 ft | 98 kts | 231° |
| 2026-04-24 16:32 | 54.18165 | 12.39644 | 2225 ft | 98 kts | 231° |
| 2026-04-24 16:33 | 54.17653 | 12.38884 | 2245 ft | 98 kts | 232° |
| 2026-04-24 16:33 | 54.17143 | 12.38109 | 2257 ft | 98 kts | 232° |
| 2026-04-24 16:33 | 54.16633 | 12.37331 | 2280 ft | 98 kts | 233° |
| 2026-04-24 16:33 | 54.16127 | 12.36538 | 2285 ft | 99 kts | 234° |
| 2026-04-24 16:34 | 54.15702 | 12.35666 | 2303 ft | 94 kts | 246° |
| 2026-04-24 16:34 | 54.15406 | 12.34675 | 2313 ft | 91 kts | 257° |
| 2026-04-24 16:34 | 54.15211 | 12.33644 | 2336 ft | 90 kts | 261° |
| 2026-04-24 16:34 | 54.15005 | 12.32632 | 2363 ft | 90 kts | 257° |
| 2026-04-24 16:35 | 54.14764 | 12.31648 | 2383 ft | 91 kts | 254° |
| 2026-04-24 16:35 | 54.14467 | 12.30662 | 2393 ft | 93 kts | 250° |
| 2026-04-24 16:35 | 54.14149 | 12.29713 | 2411 ft | 94 kts | 249° |
| 2026-04-24 16:35 | 54.13819 | 12.28750 | 2425 ft | 94 kts | 248° |
| 2026-04-24 16:36 | 54.13477 | 12.27804 | 2454 ft | 93 kts | 246° |
| 2026-04-24 16:36 | 54.13113 | 12.26878 | 2462 ft | 94 kts | 246° |
| 2026-04-24 16:36 | 54.12795 | 12.25912 | 2484 ft | 91 kts | 253° |
| 2026-04-24 16:36 | 54.12557 | 12.24902 | 2478 ft | 92 kts | 259° |
| 2026-04-24 16:37 | 54.12395 | 12.23875 | 2502 ft | 90 kts | 265° |
| 2026-04-24 16:37 | 54.12304 | 12.22819 | 2512 ft | 89 kts | 270° |
| 2026-04-24 16:37 | 54.12253 | 12.22126 | 2535 ft | 88 kts | 269° |
| 2026-04-24 16:37 | 54.12103 | 12.20731 | 2554 ft | 89 kts | 264° |
| 2026-04-24 16:38 | 54.11921 | 12.19711 | 2568 ft | 91 kts | 260° |
| 2026-04-24 16:38 | 54.11739 | 12.18678 | 2574 ft | 91 kts | 263° |
| 2026-04-24 16:38 | 54.11612 | 12.17619 | 2570 ft | 92 kts | 268° |
| 2026-04-24 16:38 | 54.11527 | 12.16550 | 2587 ft | 90 kts | 271° |
| 2026-04-24 16:39 | 54.11490 | 12.15497 | 2587 ft | 90 kts | 275° |
| 2026-04-24 16:39 | 54.11500 | 12.14429 | 2608 ft | 88 kts | 278° |
| 2026-04-24 16:39 | 54.11526 | 12.13378 | 2598 ft | 90 kts | 279° |
| 2026-04-24 16:39 | 54.11591 | 12.12342 | 2627 ft | 86 kts | 283° |
| 2026-04-24 16:40 | 54.11727 | 12.11336 | 2613 ft | 87 kts | 290° |
| 2026-04-24 16:40 | 54.11950 | 12.10401 | 2625 ft | 85 kts | 297° |
| 2026-04-24 16:40 | 54.12217 | 12.09502 | 2617 ft | 86 kts | 298° |
| 2026-04-24 16:40 | 54.12457 | 12.08558 | 2603 ft | 87 kts | 294° |
| 2026-04-24 16:41 | 54.12656 | 12.07597 | 2613 ft | 86 kts | 290° |
| 2026-04-24 16:41 | 54.12822 | 12.06590 | 2582 ft | 89 kts | 287° |
| 2026-04-24 16:41 | 54.12938 | 12.05559 | 2601 ft | 87 kts | 283° |
| 2026-04-24 16:41 | 54.12987 | 12.04503 | 2585 ft | 90 kts | 277° |
| 2026-04-24 16:42 | 54.12952 | 12.03436 | 2583 ft | 91 kts | 270° |
| 2026-04-24 16:42 | 54.12824 | 12.02359 | 2573 ft | 93 kts | 263° |
| 2026-04-24 16:42 | 54.12672 | 12.01301 | 2576 ft | 92 kts | 265° |
| 2026-04-24 16:42 | 54.12587 | 12.00231 | 2561 ft | 91 kts | 272° |
| 2026-04-24 16:43 | 54.12532 | 11.99156 | 2573 ft | 90 kts | 271° |
| 2026-04-24 16:43 | 54.12471 | 11.98095 | 2564 ft | 91 kts | 270° |
| 2026-04-24 16:43 | 54.12380 | 11.97035 | 2574 ft | 90 kts | 267° |
| 2026-04-24 16:43 | 54.12257 | 11.95973 | 2557 ft | 91 kts | 267° |
| 2026-04-24 16:44 | 54.12173 | 11.94920 | 2568 ft | 89 kts | 271° |
| 2026-04-24 16:44 | 54.12138 | 11.93872 | 2558 ft | 89 kts | 275° |
| 2026-04-24 16:44 | 54.12136 | 11.93199 | 2550 ft | 89 kts | 276° |
| 2026-04-24 16:44 | 54.12123 | 11.92203 | 2557 ft | 89 kts | 273° |
| 2026-04-24 16:45 | 54.12086 | 11.91135 | 2539 ft | 90 kts | 274° |
| 2026-04-24 16:45 | 54.12098 | 11.90082 | 2539 ft | 89 kts | 278° |
| 2026-04-24 16:45 | 54.12110 | 11.89026 | 2529 ft | 90 kts | 275° |
| 2026-04-24 16:45 | 54.12074 | 11.87949 | 2535 ft | 90 kts | 270° |
| 2026-04-24 16:46 | 54.11966 | 11.86890 | 2522 ft | 93 kts | 264° |
| 2026-04-24 16:46 | 54.11778 | 11.85822 | 2525 ft | 93 kts | 260° |
| 2026-04-24 16:46 | 54.11599 | 11.84765 | 2509 ft | 93 kts | 264° |
| 2026-04-24 16:46 | 54.11480 | 11.83698 | 2520 ft | 90 kts | 269° |
| 2026-04-24 16:47 | 54.11419 | 11.82630 | 2516 ft | 90 kts | 272° |
| 2026-04-24 16:47 | 54.11342 | 11.81581 | 2524 ft | 91 kts | 266° |
| 2026-04-24 16:47 | 54.11186 | 11.80531 | 2509 ft | 93 kts | 261° |
| 2026-04-24 16:47 | 54.10979 | 11.79469 | 2516 ft | 92 kts | 259° |
| 2026-04-24 16:48 | 54.10787 | 11.78445 | 2506 ft | 92 kts | 263° |
| 2026-04-24 16:48 | 54.10681 | 11.77371 | 2488 ft | 90 kts | 274° |
| 2026-04-24 16:48 | 54.10717 | 11.76323 | 2493 ft | 88 kts | 278° |
| 2026-04-24 16:48 | 54.10680 | 11.75261 | 2488 ft | 91 kts | 269° |
| 2026-04-24 16:49 | 54.10534 | 11.74206 | 2486 ft | 93 kts | 259° |
| 2026-04-24 16:49 | 54.10311 | 11.73171 | 2481 ft | 93 kts | 259° |
| 2026-04-24 16:49 | 54.10131 | 11.72127 | 2469 ft | 92 kts | 265° |
| 2026-04-24 16:49 | 54.10027 | 11.71053 | 2464 ft | 91 kts | 268° |
| 2026-04-24 16:50 | 54.09949 | 11.70344 | 2466 ft | 91 kts | 265° |
| 2026-04-24 16:50 | 54.09692 | 11.68939 | 2450 ft | 94 kts | 257° |
| 2026-04-24 16:50 | 54.09409 | 11.67924 | 2456 ft | 96 kts | 251° |
| 2026-04-24 16:50 | 54.09079 | 11.66934 | 2457 ft | 96 kts | 249° |
| 2026-04-24 16:51 | 54.08731 | 11.65954 | 2442 ft | 98 kts | 247° |
| 2026-04-24 16:51 | 54.08344 | 11.65004 | 2452 ft | 98 kts | 243° |
| 2026-04-24 16:51 | 54.07927 | 11.64087 | 2448 ft | 98 kts | 242° |
| 2026-04-24 16:51 | 54.07491 | 11.63184 | 2456 ft | 98 kts | 240° |
| 2026-04-24 16:52 | 54.07047 | 11.62303 | 2447 ft | 99 kts | 239° |
| 2026-04-24 16:52 | 54.06593 | 11.61430 | 2449 ft | 99 kts | 238° |
| 2026-04-24 16:52 | 54.06126 | 11.60561 | 2439 ft | 99 kts | 237° |
| 2026-04-24 16:52 | 54.05658 | 11.59695 | 2436 ft | 100 kts | 237° |
| 2026-04-24 16:53 | 54.05182 | 11.58823 | 2439 ft | 100 kts | 235° |
| 2026-04-24 16:53 | 54.04660 | 11.58025 | 2427 ft | 103 kts | 229° |
| 2026-04-24 16:53 | 54.04089 | 11.57304 | 2435 ft | 103 kts | 224° |
| 2026-04-24 16:53 | 54.03478 | 11.56636 | 2418 ft | 106 kts | 221° |
| 2026-04-24 16:54 | 54.02840 | 11.56006 | 2427 ft | 105 kts | 218° |
| 2026-04-24 16:54 | 54.02183 | 11.55419 | 2433 ft | 106 kts | 216° |
| 2026-04-24 16:54 | 54.01521 | 11.54898 | 2448 ft | 107 kts | 212° |
| 2026-04-24 16:54 | 54.00822 | 11.54453 | 2451 ft | 108 kts | 208° |
| 2026-04-24 16:55 | 54.00098 | 11.54054 | 2465 ft | 108 kts | 207° |
| 2026-04-24 16:55 | 53.99390 | 11.53666 | 2471 ft | 107 kts | 208° |
| 2026-04-24 16:55 | 53.98691 | 11.53235 | 2479 ft | 107 kts | 210° |
| 2026-04-24 16:55 | 53.97979 | 11.52829 | 2483 ft | 108 kts | 206° |
| 2026-04-24 16:56 | 53.97250 | 11.52504 | 2492 ft | 108 kts | 205° |
| 2026-04-24 16:56 | 53.96532 | 11.52134 | 2488 ft | 108 kts | 208° |
| 2026-04-24 16:56 | 53.95841 | 11.51667 | 2493 ft | 106 kts | 215° |
| 2026-04-24 16:56 | 53.95213 | 11.51056 | 2492 ft | 103 kts | 225° |
| 2026-04-24 16:57 | 53.94667 | 11.50306 | 2503 ft | 100 kts | 231° |
| 2026-04-24 16:57 | 53.94134 | 11.49519 | 2495 ft | 102 kts | 231° |
| 2026-04-24 16:57 | 53.93610 | 11.48741 | 2515 ft | 100 kts | 231° |
| 2026-04-24 16:57 | 53.93071 | 11.47969 | 2506 ft | 102 kts | 229° |
| 2026-04-24 16:58 | 53.92514 | 11.47236 | 2528 ft | 101 kts | 226° |
| 2026-04-24 16:58 | 53.91992 | 11.46450 | 2524 ft | 100 kts | 238° |
| 2026-04-24 16:58 | 53.91589 | 11.45494 | 2526 ft | 96 kts | 247° |
| 2026-04-24 16:58 | 53.91244 | 11.44552 | 2545 ft | 95 kts | 248° |
| 2026-04-24 16:59 | 53.90909 | 11.43575 | 2537 ft | 95 kts | 251° |
| 2026-04-24 16:59 | 53.90627 | 11.42571 | 2549 ft | 93 kts | 256° |
| 2026-04-24 16:59 | 53.90110 | 11.40548 | 2566 ft | 94 kts | 250° |
| 2026-04-24 17:00 | 53.89793 | 11.39575 | 2555 ft | 95 kts | 251° |
| 2026-04-24 17:00 | 53.89187 | 11.37584 | 2547 ft | 95 kts | 253° |
| 2026-04-24 17:00 | 53.88892 | 11.36597 | 2556 ft | 94 kts | 253° |
| 2026-04-24 17:01 | 53.88320 | 11.34596 | 2559 ft | 94 kts | 252° |
| 2026-04-24 17:01 | 53.88027 | 11.33591 | 2555 ft | 95 kts | 253° |
| 2026-04-24 17:02 | 53.87551 | 11.31896 | 2557 ft | 95 kts | 255° |
| 2026-04-24 17:02 | 53.87221 | 11.30530 | 2550 ft | 94 kts | 257° |
| 2026-04-24 17:02 | 53.86998 | 11.29486 | 2561 ft | 93 kts | 260° |
| 2026-04-24 17:02 | 53.86809 | 11.28438 | 2548 ft | 93 kts | 262° |
| 2026-04-24 17:03 | 53.86505 | 11.26350 | 2570 ft | 90 kts | 264° |
| 2026-04-24 17:03 | 53.86332 | 11.25320 | 2571 ft | 92 kts | 261° |
| 2026-04-24 17:03 | 53.86129 | 11.24304 | 2588 ft | 92 kts | 259° |
| 2026-04-24 17:04 | 53.85892 | 11.23280 | 2592 ft | 93 kts | 256° |
| 2026-04-24 17:04 | 53.85371 | 11.21262 | 2604 ft | 93 kts | 257° |
| 2026-04-24 17:04 | 53.85177 | 11.20226 | 2612 ft | 92 kts | 263° |
| 2026-04-24 17:05 | 53.85048 | 11.19173 | 2618 ft | 90 kts | 269° |
| 2026-04-24 17:05 | 53.84972 | 11.18126 | 2623 ft | 90 kts | 272° |
| 2026-04-24 17:05 | 53.84902 | 11.16031 | 2634 ft | 91 kts | 270° |
| 2026-04-24 17:06 | 53.84860 | 11.14983 | 2642 ft | 89 kts | 276° |
| 2026-04-24 17:06 | 53.84910 | 11.12899 | 2666 ft | 88 kts | 276° |
| 2026-04-24 17:06 | 53.84846 | 11.11844 | 2671 ft | 90 kts | 267° |
| 2026-04-24 17:07 | 53.84762 | 11.11160 | 2675 ft | 91 kts | 266° |
| 2026-04-24 17:07 | 53.84562 | 11.09767 | 2678 ft | 92 kts | 263° |
| 2026-04-24 17:07 | 53.84244 | 11.07670 | 2683 ft | 92 kts | 265° |
| 2026-04-24 17:08 | 53.83958 | 11.05585 | 2707 ft | 92 kts | 263° |
| 2026-04-24 17:08 | 53.83783 | 11.04549 | 2711 ft | 92 kts | 262° |
| 2026-04-24 17:08 | 53.83620 | 11.03495 | 2719 ft | 91 kts | 264° |
| 2026-04-24 17:09 | 53.83275 | 11.01400 | 2726 ft | 93 kts | 262° |
| 2026-04-24 17:09 | 53.82983 | 10.99289 | 2731 ft | 92 kts | 266° |
| 2026-04-24 17:10 | 53.82859 | 10.98240 | 2752 ft | 91 kts | 267° |
| 2026-04-24 17:10 | 53.82412 | 10.95036 | 2730 ft | 94 kts | 265° |
| 2026-04-24 17:11 | 53.81874 | 10.91848 | 2727 ft | 95 kts | 260° |
| 2026-04-24 17:12 | 53.81242 | 10.86597 | 2694 ft | 88 kts | 288° |